Aviation Digital Data Service (ADDS)

Output produced by METARs form (1254 UTC 13 February 2016)
found at http://aviationweather.gov/adds/metars/
 
KLYH 131123Z 1312/1412 30011G22KT P6SM SCT060 
     FM132200 30010G17KT P6SM SKC 
     FM140100 31006KT P6SM SKC